createdAt,value
2022-11-27T00:00:45.317Z,2.11
2022-11-27T00:03:12.141Z,2.09
2022-11-27T00:05:38.637Z,2.11
2022-11-27T00:08:05.201Z,2.11
2022-11-27T00:10:31.550Z,2.07
2022-11-27T00:12:57.946Z,2.06
2022-11-27T00:15:24.358Z,2.04
2022-11-27T00:17:50.707Z,2.03
2022-11-27T00:20:17.198Z,2.00
2022-11-27T00:22:43.633Z,1.97
2022-11-27T00:25:09.949Z,1.94
2022-11-27T00:27:36.291Z,1.88
2022-11-27T00:30:02.799Z,1.85
2022-11-27T00:32:29.141Z,1.82
2022-11-27T00:34:55.467Z,1.80
2022-11-27T00:37:21.888Z,1.80
2022-11-27T00:39:48.339Z,1.77
2022-11-27T00:42:14.702Z,1.77
2022-11-27T00:44:41.425Z,1.75
2022-11-27T00:47:08.002Z,1.78
2022-11-27T00:49:34.404Z,1.77
2022-11-27T00:52:00.753Z,1.74
2022-11-27T00:54:27.061Z,1.66
2022-11-27T00:56:53.878Z,1.64
2022-11-27T00:59:20.266Z,1.65
2022-11-27T01:01:47.274Z,1.60
2022-11-27T01:04:15.610Z,1.56
2022-11-27T01:06:42.804Z,1.55
2022-11-27T01:09:11.824Z,1.52
2022-11-27T01:11:38.465Z,1.48
2022-11-27T01:14:08.130Z,1.46
2022-11-27T01:16:36.398Z,1.47
2022-11-27T01:19:04.756Z,1.46
2022-11-27T01:21:34.630Z,1.37
2022-11-27T01:24:02.627Z,1.40
2022-11-27T01:26:29.250Z,1.36
2022-11-27T01:28:57.768Z,1.32
2022-11-27T01:31:28.368Z,1.26
2022-11-27T01:33:57.661Z,1.27
2022-11-27T01:36:24.616Z,1.18
2022-11-27T01:38:51.216Z,1.14
2022-11-27T01:41:20.816Z,1.16
2022-11-27T01:43:52.948Z,1.18
2022-11-27T01:46:39.434Z,1.22
2022-11-27T01:49:12.015Z,1.20
2022-11-27T01:51:44.347Z,1.20
2022-11-27T01:54:11.243Z,1.20
2022-11-27T01:56:40.127Z,1.21
2022-11-27T01:59:07.405Z,1.13
2022-11-27T02:01:33.817Z,1.08
2022-11-27T02:04:02.315Z,1.11
2022-11-27T02:06:28.902Z,1.08
2022-11-27T02:08:56.241Z,1.06
2022-11-27T02:11:46.369Z,0.99
2022-11-27T02:14:33.694Z,0.98
2022-11-27T02:17:18.718Z,0.97
2022-11-27T02:20:12.846Z,1.02
2022-11-27T02:22:47.335Z,1.08
2022-11-27T02:25:28.297Z,1.06
2022-11-27T02:28:19.133Z,1.09
2022-11-27T02:30:56.635Z,1.07
2022-11-27T02:33:23.865Z,1.01
2022-11-27T02:35:57.532Z,1.01
2022-11-27T02:38:35.501Z,1.04
2022-11-27T02:41:09.749Z,1.07
2022-11-27T02:43:43.069Z,1.10
2022-11-27T02:46:12.885Z,1.19
2022-11-27T02:48:49.945Z,1.22
2022-11-27T02:51:21.646Z,1.25
2022-11-27T02:54:02.058Z,1.22
2022-11-27T02:56:31.047Z,1.22
2022-11-27T02:59:01.238Z,1.23
2022-11-27T03:01:31.237Z,1.26
2022-11-27T03:04:00.000Z,1.27
2022-11-27T03:06:34.457Z,1.29
2022-11-27T03:09:08.411Z,1.29
2022-11-27T03:11:34.917Z,1.31
2022-11-27T03:14:06.398Z,1.15
2022-11-27T03:16:40.265Z,1.07
2022-11-27T03:19:17.299Z,1.07
2022-11-27T03:21:48.344Z,1.08
2022-11-27T03:24:15.265Z,1.09
2022-11-27T03:26:42.048Z,1.03
2022-11-27T03:29:14.175Z,1.01
2022-11-27T03:31:41.231Z,1.04
2022-11-27T03:34:08.425Z,1.06
2022-11-27T03:36:34.822Z,1.02
2022-11-27T03:39:01.431Z,1.02
2022-11-27T03:41:45.746Z,1.02
2022-11-27T03:44:35.163Z,1.02
2022-11-27T03:47:32.310Z,1.02
2022-11-27T03:50:23.676Z,0.99
2022-11-27T03:53:22.178Z,0.93
2022-11-27T03:55:54.652Z,0.92
2022-11-27T03:58:31.442Z,0.95
2022-11-27T04:01:00.326Z,0.97
2022-11-27T04:03:29.620Z,0.90
2022-11-27T04:05:56.902Z,0.84
2022-11-27T04:08:23.541Z,0.87
2022-11-27T04:10:49.936Z,0.94
2022-11-27T04:13:16.667Z,0.93
2022-11-27T04:15:43.112Z,0.91
2022-11-27T04:18:09.537Z,0.97
2022-11-27T04:20:35.913Z,0.92
2022-11-27T04:23:02.570Z,0.96
2022-11-27T04:25:29.064Z,1.01
2022-11-27T04:27:55.596Z,0.97
2022-11-27T04:30:22.224Z,0.88
2022-11-27T04:32:48.622Z,0.85
2022-11-27T04:35:15.133Z,0.84
2022-11-27T04:37:41.557Z,0.84
2022-11-27T04:40:08.562Z,0.87
2022-11-27T04:42:35.055Z,0.93
2022-11-27T04:45:01.460Z,0.90
2022-11-27T04:47:27.833Z,0.93
2022-11-27T04:49:54.249Z,0.92
2022-11-27T04:52:20.582Z,0.96
2022-11-27T04:54:46.923Z,0.93
2022-11-27T04:57:13.374Z,0.95
2022-11-27T04:59:39.791Z,0.96
2022-11-27T05:02:06.179Z,1.03
2022-11-27T05:04:32.578Z,0.97
2022-11-27T05:06:59.112Z,0.89
2022-11-27T05:09:25.529Z,0.93
2022-11-27T05:11:51.953Z,0.97
2022-11-27T05:14:18.480Z,1.00
2022-11-27T05:16:49.955Z,1.04
2022-11-27T05:19:18.080Z,1.04
2022-11-27T05:21:45.755Z,1.06
2022-11-27T05:24:13.506Z,1.10
2022-11-27T05:26:40.884Z,1.17
2022-11-27T05:29:08.832Z,1.22
2022-11-27T05:31:35.760Z,1.27
2022-11-27T05:34:02.848Z,1.29
2022-11-27T05:36:29.886Z,1.30
2022-11-27T05:38:56.573Z,1.32
2022-11-27T05:41:23.395Z,1.30
2022-11-27T05:43:49.877Z,1.33
2022-11-27T05:46:18.638Z,1.31
2022-11-27T05:48:44.986Z,1.32
2022-11-27T05:51:11.335Z,1.32
2022-11-27T05:53:37.778Z,1.36
2022-11-27T05:56:10.804Z,1.41
2022-11-27T05:58:38.977Z,1.38
2022-11-27T06:01:06.689Z,1.39
2022-11-27T06:03:33.421Z,1.37
2022-11-27T06:06:06.175Z,1.23
2022-11-27T06:08:32.627Z,1.22
2022-11-27T06:10:59.059Z,1.20
2022-11-27T06:13:25.396Z,1.18
2022-11-27T06:15:51.765Z,1.12
2022-11-27T06:18:18.200Z,1.16
2022-11-27T06:20:46.838Z,1.17
2022-11-27T06:23:16.611Z,1.20
2022-11-27T06:25:43.010Z,1.21
2022-11-27T06:28:09.563Z,1.20
2022-11-27T06:30:37.602Z,1.11
2022-11-27T06:33:04.125Z,1.04
2022-11-27T06:35:30.494Z,1.01
2022-11-27T06:37:56.863Z,0.92
2022-11-27T06:40:23.397Z,0.91
2022-11-27T06:42:49.780Z,0.96
2022-11-27T06:45:16.217Z,0.96
2022-11-27T06:47:42.575Z,0.92
2022-11-27T06:50:09.288Z,0.92
2022-11-27T06:52:40.119Z,0.92
2022-11-27T06:55:07.509Z,0.88
2022-11-27T06:57:33.858Z,0.93
2022-11-27T07:00:00.236Z,0.93
2022-11-27T07:02:26.813Z,1.02
2022-11-27T07:04:53.193Z,1.07
2022-11-27T07:07:19.595Z,1.08
2022-11-27T07:09:46.084Z,1.11
2022-11-27T07:12:12.470Z,1.12
2022-11-27T07:14:39.224Z,1.12
2022-11-27T07:17:05.825Z,1.13
2022-11-27T07:19:32.248Z,1.11
2022-11-27T07:21:58.594Z,1.15
2022-11-27T07:24:25.060Z,1.20
2022-11-27T07:26:51.422Z,1.32
2022-11-27T07:29:17.770Z,1.36
2022-11-27T07:31:44.199Z,1.42
2022-11-27T07:34:15.997Z,1.55
2022-11-27T07:36:46.284Z,1.65
2022-11-27T07:39:12.652Z,1.70
2022-11-27T07:41:38.994Z,1.70
2022-11-27T07:44:05.428Z,1.69
2022-11-27T07:46:31.946Z,1.70
2022-11-27T07:49:00.510Z,1.71
2022-11-27T07:51:27.679Z,1.76
2022-11-27T07:53:54.053Z,1.88
2022-11-27T07:56:21.465Z,1.95
2022-11-27T07:58:48.892Z,2.05
2022-11-27T08:01:18.337Z,2.17
2022-11-27T08:03:45.127Z,2.30
2022-11-27T08:06:23.471Z,2.30
2022-11-27T08:08:50.618Z,2.35
2022-11-27T08:11:21.831Z,2.38
2022-11-27T08:13:48.838Z,2.45
2022-11-27T08:16:15.389Z,2.47
2022-11-27T08:18:42.115Z,2.47
2022-11-27T08:21:08.490Z,2.41
2022-11-27T08:23:34.833Z,2.39
2022-11-27T08:26:05.268Z,2.34
2022-11-27T08:28:31.873Z,2.42
2022-11-27T08:30:59.762Z,2.45
2022-11-27T08:33:26.279Z,2.51
2022-11-27T08:35:53.036Z,2.60
2022-11-27T08:38:20.935Z,2.55
2022-11-27T08:41:06.838Z,2.54
2022-11-27T08:43:33.849Z,2.51
2022-11-27T08:46:04.707Z,2.57
2022-11-27T08:48:31.339Z,2.65
2022-11-27T08:50:58.772Z,2.70
2022-11-27T08:53:25.113Z,2.74
2022-11-27T08:55:51.572Z,2.84
2022-11-27T08:58:17.906Z,2.93
2022-11-27T09:00:44.357Z,2.83
2022-11-27T09:03:11.597Z,2.83
2022-11-27T09:05:42.327Z,2.89
2022-11-27T09:08:08.689Z,2.96
2022-11-27T09:10:37.042Z,2.98
2022-11-27T09:13:03.422Z,3.02
2022-11-27T09:15:29.786Z,2.99
2022-11-27T09:17:56.237Z,2.95
2022-11-27T09:20:22.669Z,3.07
2022-11-27T09:22:49.022Z,3.23
2022-11-27T09:25:15.437Z,3.37
2022-11-27T09:27:41.851Z,3.47
2022-11-27T09:30:08.804Z,3.55
2022-11-27T09:32:35.461Z,3.60
2022-11-27T09:35:01.972Z,3.54
2022-11-27T09:37:28.491Z,3.63
2022-11-27T09:39:55.690Z,3.72
2022-11-27T09:42:47.147Z,3.79
2022-11-27T09:45:17.334Z,3.82
2022-11-27T09:47:54.103Z,3.85
2022-11-27T09:50:30.894Z,3.67
2022-11-27T09:53:06.729Z,3.63
2022-11-27T09:55:43.542Z,3.78
2022-11-27T09:58:37.704Z,3.90
2022-11-27T10:01:15.921Z,3.91
2022-11-27T10:03:43.737Z,3.91
2022-11-27T10:06:33.411Z,3.99
2022-11-27T10:09:21.352Z,3.95
2022-11-27T10:12:11.850Z,3.91
2022-11-27T10:14:47.194Z,3.91
2022-11-27T10:17:26.839Z,3.94
2022-11-27T10:20:10.579Z,3.94
2022-11-27T10:23:10.167Z,3.94
2022-11-27T10:25:50.544Z,3.93
2022-11-27T10:28:36.413Z,4.02
2022-11-27T10:31:09.548Z,4.13
2022-11-27T10:33:50.335Z,4.20
2022-11-27T10:36:39.084Z,4.32
2022-11-27T10:39:15.752Z,4.36
2022-11-27T10:41:52.002Z,4.38
2022-11-27T10:44:28.057Z,4.46
2022-11-27T10:47:01.398Z,4.54
2022-11-27T10:49:27.778Z,4.64
2022-11-27T10:51:54.139Z,4.51
2022-11-27T10:54:28.985Z,4.51
2022-11-27T10:57:14.308Z,4.50
2022-11-27T10:59:55.020Z,4.52
2022-11-27T11:02:31.441Z,4.48
2022-11-27T11:05:24.057Z,4.38
2022-11-27T11:08:14.880Z,4.45
2022-11-27T11:10:49.544Z,4.37
2022-11-27T11:13:19.348Z,4.35
2022-11-27T11:15:57.874Z,4.47
2022-11-27T11:18:41.346Z,4.44
2022-11-27T11:21:17.371Z,4.41
2022-11-27T11:23:46.856Z,4.49
2022-11-27T11:26:27.980Z,4.53
2022-11-27T11:28:58.116Z,4.47
2022-11-27T11:31:38.012Z,4.57
2022-11-27T11:34:15.180Z,4.70
2022-11-27T11:36:52.422Z,4.77
2022-11-27T11:39:27.892Z,4.63
2022-11-27T11:41:54.220Z,4.74
2022-11-27T11:44:25.753Z,4.88
2022-11-27T11:46:54.847Z,4.98
2022-11-27T11:49:29.143Z,5.02
2022-11-27T11:52:33.302Z,5.05
2022-11-27T11:55:17.704Z,5.07
2022-11-27T11:58:32.294Z,4.93
2022-11-27T12:01:34.096Z,4.84
2022-11-27T12:04:06.433Z,4.77
2022-11-27T12:06:44.558Z,4.83
2022-11-27T12:09:29.396Z,4.79
2022-11-27T12:12:10.822Z,4.87
2022-11-27T12:14:44.907Z,4.88
2022-11-27T12:17:35.615Z,4.83
2022-11-27T12:20:21.797Z,4.74
2022-11-27T12:23:16.011Z,4.67
2022-11-27T12:25:50.946Z,4.70
2022-11-27T12:28:58.767Z,4.63
2022-11-27T12:31:41.655Z,4.66
2022-11-27T12:34:32.667Z,4.70
2022-11-27T12:37:13.938Z,4.85
2022-11-27T12:40:06.914Z,4.99
2022-11-27T12:42:48.401Z,5.04
2022-11-27T12:45:19.673Z,5.09
2022-11-27T12:47:56.359Z,5.15
2022-11-27T12:50:34.724Z,5.19
2022-11-27T12:53:11.532Z,5.19
2022-11-27T12:55:43.212Z,5.15
2022-11-27T12:58:27.640Z,5.21
2022-11-27T13:01:03.007Z,5.17
2022-11-27T13:03:37.721Z,5.04
2022-11-27T13:06:11.378Z,5.03
2022-11-27T13:08:53.382Z,4.98
2022-11-27T13:11:26.123Z,5.08
2022-11-27T13:14:03.236Z,5.13
2022-11-27T13:16:45.187Z,5.22
2022-11-27T13:19:33.268Z,5.28
2022-11-27T13:22:03.390Z,5.37
2022-11-27T13:24:30.345Z,5.32
2022-11-27T13:27:02.310Z,5.38
2022-11-27T13:29:47.918Z,5.39
2022-11-27T13:32:22.608Z,5.40
2022-11-27T13:34:52.152Z,5.40
2022-11-27T13:37:31.448Z,5.36
2022-11-27T13:40:18.366Z,5.37
2022-11-27T13:42:49.014Z,5.34
2022-11-27T13:45:28.196Z,5.32
2022-11-27T13:47:56.876Z,5.30
2022-11-27T13:50:29.689Z,5.37
2022-11-27T13:53:03.246Z,5.24
2022-11-27T13:55:32.538Z,5.30
2022-11-27T13:58:01.242Z,5.26
2022-11-27T14:00:37.958Z,5.31
2022-11-27T14:03:06.294Z,5.36
2022-11-27T14:05:39.845Z,5.39
2022-11-27T14:08:18.463Z,5.41
2022-11-27T14:10:56.313Z,5.38
2022-11-27T14:13:34.992Z,5.34
2022-11-27T14:16:04.783Z,5.35
2022-11-27T14:18:31.570Z,5.30
2022-11-27T14:21:01.798Z,5.32
2022-11-27T14:23:37.909Z,5.32
2022-11-27T14:26:19.019Z,5.35
2022-11-27T14:28:49.790Z,5.32
2022-11-27T14:31:35.681Z,5.37
2022-11-27T14:34:20.835Z,5.40
2022-11-27T14:36:54.342Z,5.34
2022-11-27T14:39:36.774Z,5.22
2022-11-27T14:42:19.013Z,5.21
2022-11-27T14:44:45.452Z,5.13
2022-11-27T14:47:22.598Z,5.18
2022-11-27T14:49:56.032Z,5.04
2022-11-27T14:52:23.577Z,5.02
2022-11-27T14:54:51.006Z,5.02
2022-11-27T14:57:24.274Z,5.08
2022-11-27T15:00:11.248Z,5.07
2022-11-27T15:02:37.775Z,5.07
2022-11-27T15:05:06.056Z,5.01
2022-11-27T15:07:44.051Z,4.91
2022-11-27T15:10:41.218Z,4.81
2022-11-27T15:13:21.297Z,4.76
2022-11-27T15:15:56.560Z,4.72
2022-11-27T15:18:24.185Z,4.76
2022-11-27T15:20:51.802Z,4.74
2022-11-27T15:23:24.364Z,4.63
2022-11-27T15:25:59.466Z,4.57
2022-11-27T15:28:35.650Z,4.53
2022-11-27T15:31:21.464Z,4.53
2022-11-27T15:33:59.777Z,4.47
2022-11-27T15:36:26.748Z,4.43
2022-11-27T15:39:05.055Z,4.35
2022-11-27T15:41:31.541Z,4.33
2022-11-27T15:43:57.894Z,4.29
2022-11-27T15:46:30.160Z,4.29
2022-11-27T15:48:57.182Z,4.24
2022-11-27T15:51:23.642Z,4.26
2022-11-27T15:53:50.096Z,4.24
2022-11-27T15:56:16.822Z,4.20
2022-11-27T15:58:43.576Z,4.16
2022-11-27T16:01:11.112Z,4.19
2022-11-27T16:03:39.764Z,4.21
2022-11-27T16:06:08.307Z,4.19
2022-11-27T16:08:34.839Z,4.16
2022-11-27T16:11:03.134Z,4.09
2022-11-27T16:13:29.691Z,4.17
2022-11-27T16:16:04.243Z,4.18
2022-11-27T16:18:32.249Z,4.16
2022-11-27T16:21:09.819Z,4.16
2022-11-27T16:23:38.444Z,4.18
2022-11-27T16:26:05.469Z,4.16
2022-11-27T16:28:32.459Z,4.16
2022-11-27T16:31:02.204Z,4.13
2022-11-27T16:33:30.372Z,4.04
2022-11-27T16:36:03.934Z,4.05
2022-11-27T16:38:30.266Z,3.93
2022-11-27T16:41:00.992Z,3.88
2022-11-27T16:43:29.475Z,3.88
2022-11-27T16:46:10.728Z,3.79
2022-11-27T16:48:39.172Z,3.74
2022-11-27T16:51:07.709Z,3.70
2022-11-27T16:53:38.580Z,3.65
2022-11-27T16:56:06.150Z,3.60
2022-11-27T16:58:34.442Z,3.55
2022-11-27T17:01:01.056Z,3.53
2022-11-27T17:03:27.465Z,3.61
2022-11-27T17:05:53.886Z,3.58
2022-11-27T17:08:20.196Z,3.57
2022-11-27T17:10:46.589Z,3.58
2022-11-27T17:13:12.932Z,3.54
2022-11-27T17:15:40.802Z,3.54
2022-11-27T17:18:07.344Z,3.54
2022-11-27T17:20:33.813Z,3.56
2022-11-27T17:23:00.177Z,3.57
2022-11-27T17:25:26.840Z,3.58
2022-11-27T17:27:53.234Z,3.62
2022-11-27T17:30:20.051Z,3.65
2022-11-27T17:32:46.391Z,3.69
2022-11-27T17:35:13.008Z,3.68
2022-11-27T17:37:39.345Z,3.73
2022-11-27T17:40:06.531Z,3.78
2022-11-27T17:42:32.910Z,3.73
2022-11-27T17:44:59.350Z,3.73
2022-11-27T17:47:25.686Z,3.69
2022-11-27T17:49:52.015Z,3.70
2022-11-27T17:52:18.405Z,3.69
2022-11-27T17:54:44.876Z,3.78
2022-11-27T17:57:11.210Z,3.82
2022-11-27T17:59:37.655Z,3.86
2022-11-27T18:02:04.154Z,3.89
2022-11-27T18:04:30.987Z,3.80
2022-11-27T18:06:57.690Z,3.83
2022-11-27T18:09:24.179Z,3.84
2022-11-27T18:11:50.524Z,3.82
2022-11-27T18:14:16.941Z,3.87
2022-11-27T18:16:43.432Z,3.90
2022-11-27T18:19:11.613Z,3.92
2022-11-27T18:21:38.431Z,3.88
2022-11-27T18:24:23.469Z,3.86
2022-11-27T18:27:07.710Z,3.79
2022-11-27T18:29:37.582Z,3.76
2022-11-27T18:32:04.320Z,3.74
2022-11-27T18:34:30.908Z,3.66
2022-11-27T18:36:59.439Z,3.58
2022-11-27T18:39:26.505Z,3.57
2022-11-27T18:41:52.873Z,3.56
2022-11-27T18:44:19.650Z,3.52
2022-11-27T18:46:46.212Z,3.53
2022-11-27T18:49:12.929Z,3.49
2022-11-27T18:51:39.325Z,3.47
2022-11-27T18:54:05.875Z,3.47
2022-11-27T18:56:32.376Z,3.47
2022-11-27T18:59:04.008Z,3.50
2022-11-27T19:01:36.789Z,3.50
2022-11-27T19:04:06.839Z,3.49
2022-11-27T19:06:35.620Z,3.45
2022-11-27T19:09:02.043Z,3.46
2022-11-27T19:11:30.627Z,3.43
2022-11-27T19:13:57.357Z,3.41
2022-11-27T19:16:30.992Z,3.45
2022-11-27T19:18:59.279Z,3.44
2022-11-27T19:21:28.597Z,3.40
2022-11-27T19:23:56.367Z,3.40
2022-11-27T19:26:24.049Z,3.44
2022-11-27T19:28:51.859Z,3.48
2022-11-27T19:31:18.956Z,3.51
2022-11-27T19:33:50.338Z,3.55
2022-11-27T19:36:16.869Z,3.60
2022-11-27T19:38:43.367Z,3.57
2022-11-27T19:41:15.276Z,3.60
2022-11-27T19:43:41.766Z,3.61
2022-11-27T19:46:15.321Z,3.63
2022-11-27T19:48:41.885Z,3.63
2022-11-27T19:51:09.829Z,3.61
2022-11-27T19:53:36.955Z,3.61
2022-11-27T19:56:04.033Z,3.60
2022-11-27T19:58:30.471Z,3.65
2022-11-27T20:01:15.436Z,3.60
2022-11-27T20:03:43.084Z,3.73
2022-11-27T20:06:18.417Z,3.66
2022-11-27T20:08:45.939Z,3.69
2022-11-27T20:11:19.536Z,3.77
2022-11-27T20:13:46.255Z,3.82
2022-11-27T20:16:15.192Z,3.79
2022-11-27T20:18:42.092Z,3.81
2022-11-27T20:21:17.044Z,3.83
2022-11-27T20:23:44.842Z,3.86
2022-11-27T20:26:12.387Z,3.92
2022-11-27T20:28:41.253Z,3.89
2022-11-27T20:31:13.468Z,3.84
2022-11-27T20:33:39.865Z,3.81
2022-11-27T20:36:15.340Z,3.85
2022-11-27T20:38:41.914Z,3.77
2022-11-27T20:41:10.264Z,3.82
2022-11-27T20:43:37.473Z,3.77
2022-11-27T20:46:04.917Z,3.73
2022-11-27T20:48:31.745Z,3.63
2022-11-27T20:51:06.153Z,3.69
2022-11-27T20:53:32.549Z,3.72
2022-11-27T20:56:03.735Z,3.67
2022-11-27T20:58:30.251Z,3.63
2022-11-27T21:00:59.720Z,3.59
2022-11-27T21:03:29.899Z,3.56
2022-11-27T21:05:56.310Z,3.53
2022-11-27T21:08:23.048Z,3.45
2022-11-27T21:10:50.359Z,3.40
2022-11-27T21:13:16.769Z,3.39
2022-11-27T21:15:47.421Z,3.34
2022-11-27T21:18:14.212Z,3.36
2022-11-27T21:20:41.911Z,3.37
2022-11-27T21:23:08.486Z,3.34
2022-11-27T21:25:34.940Z,3.33
2022-11-27T21:28:01.355Z,3.40
2022-11-27T21:30:28.313Z,3.37
2022-11-27T21:32:54.670Z,3.31
2022-11-27T21:35:21.023Z,3.36
2022-11-27T21:37:47.348Z,3.39
2022-11-27T21:40:13.768Z,3.45
2022-11-27T21:42:44.379Z,3.44
2022-11-27T21:45:11.308Z,3.35
2022-11-27T21:47:37.684Z,3.44
2022-11-27T21:50:05.009Z,3.42
2022-11-27T21:52:31.418Z,3.49
2022-11-27T21:54:57.888Z,3.51
2022-11-27T21:57:24.330Z,3.52
2022-11-27T21:59:51.849Z,3.53
2022-11-27T22:02:18.232Z,3.47
2022-11-27T22:04:44.929Z,3.44
2022-11-27T22:07:11.787Z,3.40
2022-11-27T22:09:38.185Z,3.36
2022-11-27T22:12:04.722Z,3.38
2022-11-27T22:14:31.049Z,3.36
2022-11-27T22:16:57.473Z,3.28
2022-11-27T22:19:23.893Z,3.28
2022-11-27T22:21:50.311Z,3.27
2022-11-27T22:24:19.732Z,3.21
2022-11-27T22:26:46.992Z,3.26
2022-11-27T22:29:13.329Z,3.25
2022-11-27T22:31:39.771Z,3.31
2022-11-27T22:34:06.182Z,3.33
2022-11-27T22:36:34.535Z,3.37
2022-11-27T22:39:04.265Z,3.35
2022-11-27T22:41:32.444Z,3.38
2022-11-27T22:44:00.386Z,3.30
2022-11-27T22:46:32.529Z,3.33
2022-11-27T22:49:01.074Z,3.38
2022-11-27T22:51:29.998Z,3.36
2022-11-27T22:53:56.349Z,3.50
2022-11-27T22:56:22.963Z,3.59
2022-11-27T22:58:52.859Z,3.64
2022-11-27T23:01:28.675Z,3.69
2022-11-27T23:03:55.186Z,3.72
2022-11-27T23:06:23.765Z,3.68
2022-11-27T23:08:51.018Z,3.51
2022-11-27T23:11:26.164Z,3.35
2022-11-27T23:13:54.679Z,3.37
2022-11-27T23:16:21.572Z,3.30
2022-11-27T23:18:48.285Z,3.27
2022-11-27T23:21:17.805Z,3.17
2022-11-27T23:23:44.757Z,3.14
2022-11-27T23:26:20.432Z,3.08
2022-11-27T23:28:48.900Z,3.10
2022-11-27T23:31:30.033Z,3.09
2022-11-27T23:33:57.921Z,3.12
2022-11-27T23:36:24.707Z,3.14
2022-11-27T23:38:51.108Z,3.20
2022-11-27T23:41:20.158Z,3.24
2022-11-27T23:43:46.961Z,3.19
2022-11-27T23:46:15.050Z,3.16
2022-11-27T23:48:41.841Z,3.19
2022-11-27T23:51:10.344Z,3.21
2022-11-27T23:53:37.315Z,3.25
2022-11-27T23:56:07.475Z,3.28
2022-11-27T23:58:33.863Z,3.32
